createdAt,value
2019-05-11T00:02:35.782Z,11.40
2019-05-11T00:12:41.147Z,11.10
2019-05-11T00:22:46.598Z,10.70
2019-05-11T00:32:52.988Z,10.70
2019-05-11T00:42:58.369Z,10.60
2019-05-11T00:53:03.766Z,10.40
2019-05-11T01:03:09.133Z,10.30
2019-05-11T01:13:14.545Z,10.30
2019-05-11T01:23:20.978Z,10.00
2019-05-11T01:33:26.344Z,9.90
2019-05-11T01:43:31.700Z,10.10
2019-05-11T01:53:37.088Z,9.80
2019-05-11T02:03:42.536Z,9.70
2019-05-11T02:13:47.921Z,9.60
2019-05-11T02:23:58.867Z,9.60
2019-05-11T02:34:04.293Z,9.60
2019-05-11T02:44:09.639Z,9.40
2019-05-11T02:54:15.017Z,9.40
2019-05-11T03:04:20.515Z,9.20
2019-05-11T03:14:25.868Z,9.20
2019-05-11T03:24:31.323Z,9.30
2019-05-11T03:34:36.691Z,9.10
2019-05-11T03:44:42.239Z,9.10
2019-05-11T03:54:47.716Z,9.00
2019-05-11T04:04:53.114Z,8.90
2019-05-11T04:14:58.497Z,9.00
2019-05-11T12:09:13.828Z,19.80
2019-05-11T12:19:19.226Z,20.20
2019-05-11T12:29:24.672Z,20.60
2019-05-11T12:49:34.889Z,20.30
2019-05-11T12:59:40.257Z,20.30
2019-05-11T13:09:45.703Z,20.10
2019-05-11T13:19:51.055Z,20.10
2019-05-11T13:29:59.014Z,20.10
2019-05-11T13:40:04.222Z,20.50
2019-05-11T14:40:34.151Z,21.60
2019-05-11T15:20:54.222Z,20.10
2019-05-11T15:31:04.406Z,19.70
2019-05-11T15:41:09.773Z,19.50
2019-05-11T15:51:15.130Z,19.10
2019-05-11T16:01:20.536Z,19.20
2019-05-11T16:11:27.809Z,19.00
2019-05-11T22:56:40.813Z,13.70
2019-05-11T23:06:47.783Z,13.60
2019-05-11T23:16:53.579Z,13.50
2019-05-11T23:26:59.388Z,13.40
2019-05-11T23:37:07.987Z,13.20
2019-05-11T23:47:13.412Z,13.20
